Suzdal', Russia
Current Conditions -  °F | °C
As of 8:00 PM on Tuesday 21 Oct 2014 (Local Time) from UUDL Reporting Station
Snow Showers Snow Showers  
Wind Chill: 12°   Ceiling: 1600
Heat Index: 23°   Visibility: 4mi
Dew Point: 19°   Wind: 11mph
Humidity: 86%   Direction: 10°N
Pressure: 29.53"   Gusts: NA
Location:  56.43°N, 40.44°E
Report Text: UUDL 211700Z 01005MPS 7000 -SHSN OVC016CB M05/M07 Q1000 NOSIGRMK QFE742 23490336
Loading
Personal Weather Stations






























Interactive Weather Map
Tropical Storm Tracking
New forecast layout! Learn more

10-Day Weather Forecast

Advertisements
Track Severe Weather on mobile